Beehive, Montana
Current Conditions -  °F | °C
As of 2:53 AM on Wednesday 22 Oct 2014 (Local Time) from KLVM Reporting Station
Overcast Overcast  
Wind Chill: 38°   Ceiling: 7000
Heat Index: 45°   Visibility: 10mi
Dew Point: 32°   Wind: 15mph
Humidity: 60%   Direction: 280°W
Pressure: 30.02"   Gusts: NA
Location:  45.4577°N, 109.823°W
Report Text: KLVM 220853Z AUTO 28013KT 10SM OVC070 07/00 A3002 RMK AO2 SLP149 T00720000 53009
Loading
Personal Weather Stations






























Interactive Weather Map
Tropical Storm Tracking
New forecast layout! Learn more

10-Day Weather Forecast

Advertisements
Track Severe Weather on mobile